sensor_id;sensor_type;location;lat;lon;timestamp;pressure;altitude;pressure_sealevel;temperature;humidity
77147;BME280;66121;52.584;9.694;2023-12-29T00:00:25;99189.31;;;10.03;77.01
77147;BME280;66121;52.584;9.694;2023-12-29T00:02:51;99203.53;;;9.98;77.83
77147;BME280;66121;52.584;9.694;2023-12-29T00:05:16;99198.34;;;10.03;77.73
77147;BME280;66121;52.584;9.694;2023-12-29T00:07:42;99212.13;;;10.03;77.29
77147;BME280;66121;52.584;9.694;2023-12-29T00:10:08;99217.22;;;10.05;77.88
77147;BME280;66121;52.584;9.694;2023-12-29T00:12:33;99209.97;;;9.88;77.99
77147;BME280;66121;52.584;9.694;2023-12-29T00:14:59;99219.94;;;10.12;77.49
77147;BME280;66121;52.584;9.694;2023-12-29T00:17:25;99203.88;;;10.03;77.65
77147;BME280;66121;52.584;9.694;2023-12-29T00:19:50;99218.13;;;9.98;77.59
77147;BME280;66121;52.584;9.694;2023-12-29T00:22:15;99238.66;;;9.94;78.36
77147;BME280;66121;52.584;9.694;2023-12-29T00:24:41;99245.50;;;9.82;78.36
77147;BME280;66121;52.584;9.694;2023-12-29T00:27:06;99249.66;;;9.94;78.19
77147;BME280;66121;52.584;9.694;2023-12-29T00:29:31;99229.63;;;9.90;78.33
77147;BME280;66121;52.584;9.694;2023-12-29T00:32:00;99236.25;;;9.96;78.58
77147;BME280;66121;52.584;9.694;2023-12-29T00:34:25;99241.41;;;9.94;78.40
77147;BME280;66121;52.584;9.694;2023-12-29T00:36:51;99236.84;;;10.10;77.90
77147;BME280;66121;52.584;9.694;2023-12-29T00:39:16;99234.97;;;10.04;78.00
77147;BME280;66121;52.584;9.694;2023-12-29T00:41:42;99224.34;;;10.02;78.04
77147;BME280;66121;52.584;9.694;2023-12-29T00:44:07;99230.41;;;9.90;78.50
77147;BME280;66121;52.584;9.694;2023-12-29T00:46:33;99247.38;;;9.89;78.67
77147;BME280;66121;52.584;9.694;2023-12-29T00:48:58;99271.38;;;9.88;79.46
77147;BME280;66121;52.584;9.694;2023-12-29T00:51:24;99260.41;;;9.85;79.21
77147;BME280;66121;52.584;9.694;2023-12-29T00:53:49;99300.06;;;9.94;79.29
77147;BME280;66121;52.584;9.694;2023-12-29T00:56:14;99306.31;;;9.95;79.32
77147;BME280;66121;52.584;9.694;2023-12-29T00:58:40;99295.84;;;9.83;79.69
77147;BME280;66121;52.584;9.694;2023-12-29T01:01:07;99307.09;;;9.95;79.57
77147;BME280;66121;52.584;9.694;2023-12-29T01:03:34;99296.84;;;9.99;79.46
77147;BME280;66121;52.584;9.694;2023-12-29T01:05:59;99303.50;;;10.02;79.44
77147;BME280;66121;52.584;9.694;2023-12-29T01:08:24;99302.94;;;9.84;80.15
77147;BME280;66121;52.584;9.694;2023-12-29T01:10:50;99326.41;;;9.95;80.27
77147;BME280;66121;52.584;9.694;2023-12-29T01:13:15;99365.38;;;9.94;80.98
77147;BME280;66121;52.584;9.694;2023-12-29T01:15:40;99388.66;;;9.89;81.44
77147;BME280;66121;52.584;9.694;2023-12-29T01:18:09;99379.72;;;9.78;81.78
77147;BME280;66121;52.584;9.694;2023-12-29T01:20:34;99405.59;;;9.88;81.99
77147;BME280;66121;52.584;9.694;2023-12-29T01:23:00;99432.81;;;9.82;82.99
77147;BME280;66121;52.584;9.694;2023-12-29T01:25:25;99460.75;;;9.84;83.22
77147;BME280;66121;52.584;9.694;2023-12-29T01:27:50;99454.34;;;9.94;82.94
77147;BME280;66121;52.584;9.694;2023-12-29T01:30:16;99463.00;;;9.93;82.70
77147;BME280;66121;52.584;9.694;2023-12-29T01:32:41;99474.78;;;9.97;83.15
77147;BME280;66121;52.584;9.694;2023-12-29T01:35:07;99438.53;;;10.02;82.73
77147;BME280;66121;52.584;9.694;2023-12-29T01:37:32;99446.41;;;10.00;82.57
77147;BME280;66121;52.584;9.694;2023-12-29T01:39:58;99440.59;;;9.91;82.65
77147;BME280;66121;52.584;9.694;2023-12-29T01:42:23;99467.69;;;9.99;82.83
77147;BME280;66121;52.584;9.694;2023-12-29T01:44:48;99471.19;;;10.03;83.31
77147;BME280;66121;52.584;9.694;2023-12-29T01:47:19;99467.72;;;9.92;83.84
77147;BME280;66121;52.584;9.694;2023-12-29T01:49:46;99494.84;;;9.97;84.14
77147;BME280;66121;52.584;9.694;2023-12-29T01:52:11;99531.09;;;9.92;84.75
77147;BME280;66121;52.584;9.694;2023-12-29T01:54:39;99556.81;;;9.75;86.70
77147;BME280;66121;52.584;9.694;2023-12-29T01:57:06;99571.81;;;9.74;87.47
77147;BME280;66121;52.584;9.694;2023-12-29T01:59:34;99610.94;;;9.44;90.79
77147;BME280;66121;52.584;9.694;2023-12-29T02:02:01;99627.56;;;9.20;94.69
77147;BME280;66121;52.584;9.694;2023-12-29T02:04:28;99642.16;;;9.02;98.25
77147;BME280;66121;52.584;9.694;2023-12-29T02:06:54;99663.00;;;9.00;100.00
77147;BME280;66121;52.584;9.694;2023-12-29T02:09:20;99678.72;;;8.96;100.00
77147;BME280;66121;52.584;9.694;2023-12-29T02:11:46;99682.69;;;8.84;100.00
77147;BME280;66121;52.584;9.694;2023-12-29T02:14:12;99721.22;;;8.84;100.00
77147;BME280;66121;52.584;9.694;2023-12-29T02:21:53;99760.09;;;8.86;100.00
77147;BME280;66121;52.584;9.694;2023-12-29T02:24:18;99755.00;;;8.88;100.00
77147;BME280;66121;52.584;9.694;2023-12-29T02:26:47;99768.75;;;8.99;100.00
77147;BME280;66121;52.584;9.694;2023-12-29T02:29:17;99750.25;;;8.92;100.00
77147;BME280;66121;52.584;9.694;2023-12-29T02:31:50;99758.13;;;8.90;100.00
77147;BME280;66121;52.584;9.694;2023-12-29T02:34:19;99757.75;;;8.92;100.00
77147;BME280;66121;52.584;9.694;2023-12-29T02:36:48;99751.81;;;9.07;100.00
77147;BME280;66121;52.584;9.694;2023-12-29T02:39:16;99762.03;;;9.25;100.00
77147;BME280;66121;52.584;9.694;2023-12-29T02:41:41;99728.59;;;9.26;100.00
77147;BME280;66121;52.584;9.694;2023-12-29T02:44:07;99728.19;;;9.28;100.00
77147;BME280;66121;52.584;9.694;2023-12-29T02:46:32;99718.75;;;9.32;100.00
77147;BME280;66121;52.584;9.694;2023-12-29T02:48:58;99703.38;;;9.38;100.00
77147;BME280;66121;52.584;9.694;2023-12-29T02:51:24;99683.34;;;9.34;99.98
77147;BME280;66121;52.584;9.694;2023-12-29T02:53:49;99673.47;;;9.44;99.13
77147;BME280;66121;52.584;9.694;2023-12-29T02:56:15;99682.56;;;9.37;98.85
77147;BME280;66121;52.584;9.694;2023-12-29T02:58:40;99672.66;;;9.50;98.59
77147;BME280;66121;52.584;9.694;2023-12-29T03:01:05;99665.13;;;9.58;97.62
77147;BME280;66121;52.584;9.694;2023-12-29T03:03:31;99655.75;;;9.48;97.39
77147;BME280;66121;52.584;9.694;2023-12-29T03:05:56;99697.88;;;9.38;98.87
77147;BME280;66121;52.584;9.694;2023-12-29T03:08:21;99703.84;;;9.19;100.00
77147;BME280;66121;52.584;9.694;2023-12-29T03:10:47;99735.28;;;9.18;100.00
77147;BME280;66121;52.584;9.694;2023-12-29T03:13:12;99754.97;;;9.06;100.00
77147;BME280;66121;52.584;9.694;2023-12-29T03:15:37;99751.81;;;9.07;100.00
77147;BME280;66121;52.584;9.694;2023-12-29T03:18:03;99774.22;;;9.06;100.00
77147;BME280;66121;52.584;9.694;2023-12-29T03:20:28;99784.47;;;8.98;100.00
77147;BME280;66121;52.584;9.694;2023-12-29T03:22:53;99789.19;;;8.91;100.00
77147;BME280;66121;52.584;9.694;2023-12-29T03:25:20;99787.59;;;8.93;100.00
77147;BME280;66121;52.584;9.694;2023-12-29T03:27:45;99798.22;;;8.98;100.00
77147;BME280;66121;52.584;9.694;2023-12-29T03:30:11;99796.25;;;9.06;100.00
77147;BME280;66121;52.584;9.694;2023-12-29T03:32:36;99802.56;;;8.99;100.00
77147;BME280;66121;52.584;9.694;2023-12-29T03:35:02;99791.94;;;8.94;100.00
77147;BME280;66121;52.584;9.694;2023-12-29T03:37:27;99810.00;;;9.06;100.00
77147;BME280;66121;52.584;9.694;2023-12-29T03:39:52;99819.03;;;9.03;100.00
77147;BME280;66121;52.584;9.694;2023-12-29T03:42:18;99811.97;;;9.09;100.00
77147;BME280;66121;52.584;9.694;2023-12-29T03:44:43;99808.44;;;9.08;100.00
77147;BME280;66121;52.584;9.694;2023-12-29T03:47:10;99808.03;;;9.17;100.00
77147;BME280;66121;52.584;9.694;2023-12-29T03:49:35;99791.13;;;9.29;100.00
77147;BME280;66121;52.584;9.694;2023-12-29T03:52:01;99767.13;;;9.26;100.00
77147;BME280;66121;52.584;9.694;2023-12-29T03:54:26;99752.53;;;9.43;100.00
77147;BME280;66121;52.584;9.694;2023-12-29T03:56:51;99730.13;;;9.38;100.00
77147;BME280;66121;52.584;9.694;2023-12-29T03:59:17;99730.88;;;9.45;100.00
77147;BME280;66121;52.584;9.694;2023-12-29T04:01:42;99708.06;;;9.45;100.00
77147;BME280;66121;52.584;9.694;2023-12-29T04:04:08;99688.78;;;9.48;100.00
77147;BME280;66121;52.584;9.694;2023-12-29T04:06:33;99682.47;;;9.55;100.00
77147;BME280;66121;52.584;9.694;2023-12-29T04:08:58;99639.59;;;9.50;100.00
77147;BME280;66121;52.584;9.694;2023-12-29T04:11:24;99649.06;;;9.49;99.90
77147;BME280;66121;52.584;9.694;2023-12-29T04:13:49;99637.31;;;9.38;99.73
77147;BME280;66121;52.584;9.694;2023-12-29T04:16:14;99652.25;;;9.44;99.98
77147;BME280;66121;52.584;9.694;2023-12-29T04:18:40;99629.41;;;9.44;99.97
77147;BME280;66121;52.584;9.694;2023-12-29T04:21:06;99649.91;;;9.36;100.00
77147;BME280;66121;52.584;9.694;2023-12-29T04:23:33;99665.66;;;9.28;100.00
77147;BME280;66121;52.584;9.694;2023-12-29T04:25:58;99664.47;;;9.36;100.00
77147;BME280;66121;52.584;9.694;2023-12-29T04:28:24;99673.13;;;9.28;100.00
77147;BME280;66121;52.584;9.694;2023-12-29T04:30:49;99715.59;;;9.30;100.00
77147;BME280;66121;52.584;9.694;2023-12-29T04:33:14;99729.75;;;9.36;100.00
77147;BME280;66121;52.584;9.694;2023-12-29T04:35:40;99727.41;;;9.31;100.00
77147;BME280;66121;52.584;9.694;2023-12-29T04:38:05;99726.25;;;9.18;100.00
77147;BME280;66121;52.584;9.694;2023-12-29T04:40:31;99760.47;;;9.13;100.00
77147;BME280;66121;52.584;9.694;2023-12-29T04:42:57;99795.84;;;9.07;100.00
77147;BME280;66121;52.584;9.694;2023-12-29T04:45:22;99808.44;;;8.94;100.00
77147;BME280;66121;52.584;9.694;2023-12-29T04:47:47;99816.69;;;8.87;100.00
77147;BME280;66121;52.584;9.694;2023-12-29T04:50:13;99829.66;;;8.87;100.00
77147;BME280;66121;52.584;9.694;2023-12-29T04:52:38;99826.13;;;8.97;100.00
77147;BME280;66121;52.584;9.694;2023-12-29T04:55:03;99824.56;;;8.82;100.00
77147;BME280;66121;52.584;9.694;2023-12-29T04:57:29;99841.44;;;8.80;100.00
77147;BME280;66121;52.584;9.694;2023-12-29T04:59:54;99833.56;;;8.75;100.00
77147;BME280;66121;52.584;9.694;2023-12-29T05:02:19;99847.75;;;8.77;100.00
77147;BME280;66121;52.584;9.694;2023-12-29T05:04:45;99854.41;;;8.90;100.00
77147;BME280;66121;52.584;9.694;2023-12-29T05:07:11;99850.88;;;8.86;100.00
77147;BME280;66121;52.584;9.694;2023-12-29T05:09:37;99854.03;;;8.88;100.00
77147;BME280;66121;52.584;9.694;2023-12-29T05:12:02;99854.44;;;8.94;100.00
77147;BME280;66121;52.584;9.694;2023-12-29T05:14:27;99867.03;;;9.02;100.00
77147;BME280;66121;52.584;9.694;2023-12-29T05:16:53;99844.97;;;9.13;100.00
77147;BME280;66121;52.584;9.694;2023-12-29T05:19:19;99834.38;;;9.00;100.00
77147;BME280;66121;52.584;9.694;2023-12-29T05:21:44;99837.91;;;9.08;100.00
77147;BME280;66121;52.584;9.694;2023-12-29T05:24:09;99833.19;;;9.05;100.00
77147;BME280;66121;52.584;9.694;2023-12-29T05:26:35;99800.19;;;8.84;100.00
77147;BME280;66121;52.584;9.694;2023-12-29T05:29:00;99832.81;;;8.96;100.00
77147;BME280;66121;52.584;9.694;2023-12-29T05:31:26;99851.28;;;8.88;100.00
77147;BME280;66121;52.584;9.694;2023-12-29T05:33:51;99839.50;;;8.77;100.00
77147;BME280;66121;52.584;9.694;2023-12-29T05:36:16;99869.75;;;8.77;100.00
77147;BME280;66121;52.584;9.694;2023-12-29T05:38:46;99886.63;;;8.76;100.00
77147;BME280;66121;52.584;9.694;2023-12-29T05:41:15;99876.78;;;8.71;100.00
77147;BME280;66121;52.584;9.694;2023-12-29T05:43:40;99864.97;;;8.60;100.00
77147;BME280;66121;52.584;9.694;2023-12-29T05:46:10;99877.19;;;8.66;100.00
77147;BME280;66121;52.584;9.694;2023-12-29T05:48:39;99870.09;;;8.69;100.00
77147;BME280;66121;52.584;9.694;2023-12-29T05:51:08;99877.16;;;8.59;100.00
77147;BME280;66121;52.584;9.694;2023-12-29T05:53:34;99869.31;;;8.61;100.00
77147;BME280;66121;52.584;9.694;2023-12-29T05:55:59;99872.06;;;8.61;100.00
77147;BME280;66121;52.584;9.694;2023-12-29T05:58:25;99868.53;;;8.71;100.00
77147;BME280;66121;52.584;9.694;2023-12-29T06:00:50;99868.16;;;8.69;100.00
77147;BME280;66121;52.584;9.694;2023-12-29T06:03:15;99876.41;;;8.76;100.00
77147;BME280;66121;52.584;9.694;2023-12-29T06:05:41;99877.19;;;8.70;100.00
77147;BME280;66121;52.584;9.694;2023-12-29T06:08:07;99870.91;;;8.69;100.00
77147;BME280;66121;52.584;9.694;2023-12-29T06:10:32;99874.44;;;8.66;100.00
77147;BME280;66121;52.584;9.694;2023-12-29T06:12:57;99889.34;;;8.65;100.00
77147;BME280;66121;52.584;9.694;2023-12-29T06:15:23;99898.00;;;8.71;100.00
77147;BME280;66121;52.584;9.694;2023-12-29T06:17:48;99894.09;;;8.72;100.00
77147;BME280;66121;52.584;9.694;2023-12-29T06:20:14;99899.56;;;8.75;100.00
77147;BME280;66121;52.584;9.694;2023-12-29T06:22:40;99892.13;;;8.72;100.00
77147;BME280;66121;52.584;9.694;2023-12-29T06:25:09;99896.88;;;8.82;100.00
77147;BME280;66121;52.584;9.694;2023-12-29T06:27:36;99896.44;;;8.66;100.00
77147;BME280;66121;52.584;9.694;2023-12-29T06:30:05;99909.06;;;8.85;100.00
77147;BME280;66121;52.584;9.694;2023-12-29T06:32:31;99908.66;;;8.86;100.00
77147;BME280;66121;52.584;9.694;2023-12-29T06:34:56;99912.19;;;8.83;100.00
77147;BME280;66121;52.584;9.694;2023-12-29T06:37:22;99893.72;;;8.77;100.00
77147;BME280;66121;52.584;9.694;2023-12-29T06:39:47;99905.50;;;8.84;100.00
77147;BME280;66121;52.584;9.694;2023-12-29T06:42:12;99891.38;;;8.82;100.00
77147;BME280;66121;52.584;9.694;2023-12-29T06:44:38;99888.22;;;8.98;100.00
77147;BME280;66121;52.584;9.694;2023-12-29T06:47:03;99890.19;;;8.90;100.00
77147;BME280;66121;52.584;9.694;2023-12-29T06:49:31;99885.06;;;8.92;100.00
77147;BME280;66121;52.584;9.694;2023-12-29T06:51:56;99878.00;;;8.98;100.00
77147;BME280;66121;52.584;9.694;2023-12-29T06:54:22;99858.34;;;8.79;100.00
77147;BME280;66121;52.584;9.694;2023-12-29T06:56:47;99868.97;;;8.91;100.00
77147;BME280;66121;52.584;9.694;2023-12-29T06:59:14;99874.47;;;9.01;100.00
77147;BME280;66121;52.584;9.694;2023-12-29T07:01:39;99857.97;;;8.94;100.00
77147;BME280;66121;52.584;9.694;2023-12-29T07:04:07;99874.06;;;9.03;100.00
77147;BME280;66121;52.584;9.694;2023-12-29T07:06:36;99852.47;;;8.94;100.00
77147;BME280;66121;52.584;9.694;2023-12-29T07:09:01;99856.78;;;8.85;100.00
77147;BME280;66121;52.584;9.694;2023-12-29T07:11:28;99859.50;;;8.64;100.00
77147;BME280;66121;52.584;9.694;2023-12-29T07:13:54;99868.09;;;8.52;100.00
77147;BME280;66121;52.584;9.694;2023-12-29T07:16:19;99872.38;;;8.38;100.00
77147;BME280;66121;52.584;9.694;2023-12-29T07:18:47;99873.88;;;8.22;100.00
77147;BME280;66121;52.584;9.694;2023-12-29T07:21:14;99889.50;;;8.04;100.00
77147;BME280;66121;52.584;9.694;2023-12-29T07:23:40;99912.22;;;8.01;100.00
77147;BME280;66121;52.584;9.694;2023-12-29T07:26:06;99896.88;;;7.89;100.00
77147;BME280;66121;52.584;9.694;2023-12-29T07:28:32;99934.94;;;7.87;100.00
77147;BME280;66121;52.584;9.694;2023-12-29T07:30:57;99928.19;;;7.77;100.00
77147;BME280;66121;52.584;9.694;2023-12-29T07:33:23;99929.03;;;7.85;100.00
77147;BME280;66121;52.584;9.694;2023-12-29T07:35:49;99920.72;;;7.78;100.00
77147;BME280;66121;52.584;9.694;2023-12-29T07:38:15;99945.50;;;7.85;100.00
77147;BME280;66121;52.584;9.694;2023-12-29T07:40:40;99927.03;;;7.82;100.00
77147;BME280;66121;52.584;9.694;2023-12-29T07:43:06;99941.91;;;7.74;100.00
77147;BME280;66121;52.584;9.694;2023-12-29T07:45:31;99956.81;;;7.76;100.00
77147;BME280;66121;52.584;9.694;2023-12-29T07:47:56;99952.91;;;7.77;100.00
77147;BME280;66121;52.584;9.694;2023-12-29T07:50:22;99965.47;;;7.78;100.00
77147;BME280;66121;52.584;9.694;2023-12-29T07:52:47;99963.09;;;7.77;100.00
77147;BME280;66121;52.584;9.694;2023-12-29T07:55:13;99965.84;;;7.77;100.00
77147;BME280;66121;52.584;9.694;2023-12-29T07:57:41;99959.13;;;7.71;100.00
77147;BME280;66121;52.584;9.694;2023-12-29T08:00:07;99969.00;;;7.79;100.00
77147;BME280;66121;52.584;9.694;2023-12-29T08:02:32;99977.63;;;7.81;100.00
77147;BME280;66121;52.584;9.694;2023-12-29T08:04:58;99972.53;;;7.83;100.00
77147;BME280;66121;52.584;9.694;2023-12-29T08:07:23;99977.63;;;7.81;100.00
77147;BME280;66121;52.584;9.694;2023-12-29T08:09:49;99965.41;;;7.71;100.00
77147;BME280;66121;52.584;9.694;2023-12-29T08:12:14;99983.16;;;7.85;100.00
77147;BME280;66121;52.584;9.694;2023-12-29T08:14:39;99990.31;;;7.96;100.00
77147;BME280;66121;52.584;9.694;2023-12-29T08:17:05;100007.63;;;8.04;100.00
77147;BME280;66121;52.584;9.694;2023-12-29T08:19:32;100003.75;;;8.15;100.00
77147;BME280;66121;52.584;9.694;2023-12-29T08:21:57;100011.69;;;8.24;100.00
77147;BME280;66121;52.584;9.694;2023-12-29T08:24:22;100008.63;;;8.32;100.00
77147;BME280;66121;52.584;9.694;2023-12-29T08:26:48;100015.75;;;8.44;100.00
77147;BME280;66121;52.584;9.694;2023-12-29T08:29:14;100022.84;;;8.49;100.00
77147;BME280;66121;52.584;9.694;2023-12-29T08:31:39;100019.31;;;8.52;100.00
77147;BME280;66121;52.584;9.694;2023-12-29T08:34:05;100013.03;;;8.51;100.00
77147;BME280;66121;52.584;9.694;2023-12-29T08:36:30;100014.25;;;8.57;100.00
77147;BME280;66121;52.584;9.694;2023-12-29T08:38:55;100004.03;;;8.61;100.00
77147;BME280;66121;52.584;9.694;2023-12-29T08:41:22;99993.91;;;8.79;100.00
77147;BME280;66121;52.584;9.694;2023-12-29T08:43:47;99965.56;;;8.65;100.00
77147;BME280;66121;52.584;9.694;2023-12-29T08:46:13;99955.38;;;8.76;100.00
77147;BME280;66121;52.584;9.694;2023-12-29T08:48:38;99956.63;;;8.96;100.00
77147;BME280;66121;52.584;9.694;2023-12-29T08:51:03;99927.91;;;8.93;100.00
77147;BME280;66121;52.584;9.694;2023-12-29T08:53:29;99919.69;;;8.97;100.00
77147;BME280;66121;52.584;9.694;2023-12-29T08:55:58;99894.53;;;8.98;100.00
77147;BME280;66121;52.584;9.694;2023-12-29T08:58:24;99889.44;;;9.15;100.00
77147;BME280;66121;52.584;9.694;2023-12-29T09:00:49;99867.78;;;9.06;100.00
77147;BME280;66121;52.584;9.694;2023-12-29T09:03:14;99841.47;;;9.12;100.00
77147;BME280;66121;52.584;9.694;2023-12-29T09:05:40;99839.09;;;9.07;100.00
77147;BME280;66121;52.584;9.694;2023-12-29T09:08:05;99819.06;;;9.17;100.00
77147;BME280;66121;52.584;9.694;2023-12-29T09:10:31;99809.19;;;9.23;100.00
77147;BME280;66121;52.584;9.694;2023-12-29T09:12:56;99786.00;;;9.35;100.00
77147;BME280;66121;52.584;9.694;2023-12-29T09:15:21;99762.41;;;9.37;100.00
77147;BME280;66121;52.584;9.694;2023-12-29T09:17:47;99735.63;;;9.41;100.00
77147;BME280;66121;52.584;9.694;2023-12-29T09:20:12;99703.00;;;9.36;100.00
77147;BME280;66121;52.584;9.694;2023-12-29T09:22:39;99695.09;;;9.45;100.00
77147;BME280;66121;52.584;9.694;2023-12-29T09:25:05;99681.34;;;9.38;100.00
77147;BME280;66121;52.584;9.694;2023-12-29T09:27:30;99676.19;;;9.47;100.00
77147;BME280;66121;52.584;9.694;2023-12-29T09:29:56;99631.28;;;9.61;100.00
77147;BME280;66121;52.584;9.694;2023-12-29T09:32:21;99620.69;;;9.59;100.00
77147;BME280;66121;52.584;9.694;2023-12-29T09:34:46;99601.44;;;9.52;100.00
77147;BME280;66121;52.584;9.694;2023-12-29T09:37:12;99593.59;;;9.51;100.00
77147;BME280;66121;52.584;9.694;2023-12-29T09:39:37;99576.22;;;9.57;100.00
77147;BME280;66121;52.584;9.694;2023-12-29T09:42:03;99548.66;;;9.64;100.00
77147;BME280;66121;52.584;9.694;2023-12-29T09:44:30;99548.69;;;9.57;100.00
77147;BME280;66121;52.584;9.694;2023-12-29T09:47:00;99494.31;;;9.72;99.72
77147;BME280;66121;52.584;9.694;2023-12-29T09:49:27;99476.56;;;9.77;98.65
77147;BME280;66121;52.584;9.694;2023-12-29T09:51:57;99438.09;;;9.62;97.92
77147;BME280;66121;52.584;9.694;2023-12-29T09:54:23;99446.63;;;9.75;97.51
77147;BME280;66121;52.584;9.694;2023-12-29T09:56:49;99409.22;;;9.81;96.50
77147;BME280;66121;52.584;9.694;2023-12-29T09:59:16;99414.06;;;9.66;96.42
77147;BME280;66121;52.584;9.694;2023-12-29T10:01:44;99417.22;;;9.65;96.94
77147;BME280;66121;52.584;9.694;2023-12-29T10:04:11;99398.78;;;9.62;96.76
77147;BME280;66121;52.584;9.694;2023-12-29T10:06:38;99396.75;;;9.69;96.42
77147;BME280;66121;52.584;9.694;2023-12-29T10:09:07;99387.72;;;9.65;96.87
77147;BME280;66121;52.584;9.694;2023-12-29T10:11:37;99368.09;;;9.60;96.95
77147;BME280;66121;52.584;9.694;2023-12-29T10:14:21;99383.44;;;9.61;98.26
77147;BME280;66121;52.584;9.694;2023-12-29T10:16:53;99405.09;;;9.59;98.57
77147;BME280;66121;52.584;9.694;2023-12-29T10:19:36;99428.00;;;9.45;99.12
77147;BME280;66121;52.584;9.694;2023-12-29T10:22:26;99443.06;;;9.30;100.00
77147;BME280;66121;52.584;9.694;2023-12-29T10:24:55;99470.28;;;9.21;100.00
77147;BME280;66121;52.584;9.694;2023-12-29T10:27:20;99493.56;;;9.10;100.00
77147;BME280;66121;52.584;9.694;2023-12-29T10:29:46;99521.09;;;9.06;100.00
77147;BME280;66121;52.584;9.694;2023-12-29T10:32:11;99567.50;;;8.97;100.00
77147;BME280;66121;52.584;9.694;2023-12-29T10:34:36;99584.06;;;8.86;100.00
77147;BME280;66121;52.584;9.694;2023-12-29T10:37:02;99584.50;;;8.71;100.00
77147;BME280;66121;52.584;9.694;2023-12-29T10:39:28;99635.56;;;8.72;100.00
77147;BME280;66121;52.584;9.694;2023-12-29T10:42:07;99645.78;;;8.68;100.00
77147;BME280;66121;52.584;9.694;2023-12-29T10:44:37;99670.56;;;8.57;100.00
77147;BME280;66121;52.584;9.694;2023-12-29T10:47:09;99694.88;;;8.55;100.00
77147;BME280;66121;52.584;9.694;2023-12-29T10:49:35;99705.13;;;8.37;100.00
77147;BME280;66121;52.584;9.694;2023-12-29T10:52:11;99739.28;;;8.54;100.00
77147;BME280;66121;52.584;9.694;2023-12-29T10:54:37;99760.50;;;8.43;100.00
77147;BME280;66121;52.584;9.694;2023-12-29T10:57:02;99768.72;;;8.32;100.00
77147;BME280;66121;52.584;9.694;2023-12-29T10:59:28;99786.38;;;8.31;100.00
77147;BME280;66121;52.584;9.694;2023-12-29T11:01:53;99797.69;;;8.19;100.00
77147;BME280;66121;52.584;9.694;2023-12-29T11:04:22;99810.63;;;8.11;100.00
77147;BME280;66121;52.584;9.694;2023-12-29T11:06:48;99834.16;;;8.09;100.00
77147;BME280;66121;52.584;9.694;2023-12-29T11:09:30;99831.38;;;7.98;100.00
77147;BME280;66121;52.584;9.694;2023-12-29T11:12:03;99827.44;;;7.92;100.00
77147;BME280;66121;52.584;9.694;2023-12-29T11:14:29;99825.44;;;7.86;100.00
77147;BME280;66121;52.584;9.694;2023-12-29T11:16:55;99843.50;;;7.87;100.00
77147;BME280;66121;52.584;9.694;2023-12-29T11:19:21;99852.16;;;7.96;100.00
77147;BME280;66121;52.584;9.694;2023-12-29T11:21:48;99857.25;;;7.94;100.00
77147;BME280;66121;52.584;9.694;2023-12-29T11:24:17;99873.75;;;7.97;100.00
77147;BME280;66121;52.584;9.694;2023-12-29T11:26:43;99874.97;;;8.00;100.00
77147;BME280;66121;52.584;9.694;2023-12-29T11:29:09;99890.94;;;7.84;100.00
77147;BME280;66121;52.584;9.694;2023-12-29T11:31:36;99868.59;;;7.89;100.00
77147;BME280;66121;52.584;9.694;2023-12-29T11:34:18;99867.44;;;7.90;100.00
77147;BME280;66121;52.584;9.694;2023-12-29T11:36:46;99871.41;;;8.03;100.00
77147;BME280;66121;52.584;9.694;2023-12-29T11:39:28;99902.81;;;8.05;100.00
77147;BME280;66121;52.584;9.694;2023-12-29T11:42:19;99902.06;;;8.05;100.00
77147;BME280;66121;52.584;9.694;2023-12-29T11:44:44;99917.75;;;8.08;100.00
77147;BME280;66121;52.584;9.694;2023-12-29T11:47:36;99917.38;;;8.09;100.00
77147;BME280;66121;52.584;9.694;2023-12-29T11:50:03;99913.88;;;8.12;100.00
77147;BME280;66121;52.584;9.694;2023-12-29T11:52:39;99887.59;;;8.15;100.00
77147;BME280;66121;52.584;9.694;2023-12-29T11:55:14;99903.81;;;8.41;100.00
77147;BME280;66121;52.584;9.694;2023-12-29T11:57:40;99905.41;;;8.49;100.00
77147;BME280;66121;52.584;9.694;2023-12-29T12:00:07;99911.69;;;8.50;100.00
77147;BME280;66121;52.584;9.694;2023-12-29T12:02:33;99914.44;;;8.50;100.00
77147;BME280;66121;52.584;9.694;2023-12-29T12:04:58;99911.75;;;8.64;100.00
77147;BME280;66121;52.584;9.694;2023-12-29T12:12:47;99909.03;;;8.74;100.00
77147;BME280;66121;52.584;9.694;2023-12-29T12:17:58;99944.00;;;8.88;100.00
77147;BME280;66121;52.584;9.694;2023-12-29T12:20:24;99940.06;;;8.85;100.00
77147;BME280;66121;52.584;9.694;2023-12-29T12:22:57;99928.31;;;8.85;100.00
77147;BME280;66121;52.584;9.694;2023-12-29T12:25:26;99928.31;;;8.92;100.00
77147;BME280;66121;52.584;9.694;2023-12-29T12:27:53;99913.75;;;8.95;100.00
77147;BME280;66121;52.584;9.694;2023-12-29T12:30:19;99941.72;;;9.11;100.00
77147;BME280;66121;52.584;9.694;2023-12-29T12:32:44;99926.78;;;9.19;100.00
77147;BME280;66121;52.584;9.694;2023-12-29T12:35:16;99920.47;;;9.26;100.00
77147;BME280;66121;52.584;9.694;2023-12-29T12:37:42;99914.19;;;9.36;100.00
77147;BME280;66121;52.584;9.694;2023-12-29T12:40:08;99915.38;;;9.42;100.00
77147;BME280;66121;52.584;9.694;2023-12-29T12:42:38;99913.78;;;9.48;100.00
77147;BME280;66121;52.584;9.694;2023-12-29T12:45:17;99907.13;;;9.38;100.00
77147;BME280;66121;52.584;9.694;2023-12-29T12:47:45;99909.88;;;9.45;100.00
77147;BME280;66121;52.584;9.694;2023-12-29T12:50:15;99890.56;;;9.52;100.00
77147;BME280;66121;52.584;9.694;2023-12-29T12:52:41;99890.97;;;9.51;100.00
77147;BME280;66121;52.584;9.694;2023-12-29T12:55:07;99885.88;;;9.67;100.00
77147;BME280;66121;52.584;9.694;2023-12-29T12:57:33;99879.16;;;9.61;100.00
77147;BME280;66121;52.584;9.694;2023-12-29T13:00:00;99872.09;;;9.67;100.00
77147;BME280;66121;52.584;9.694;2023-12-29T13:02:27;99867.78;;;9.59;100.00
77147;BME280;66121;52.584;9.694;2023-12-29T13:04:53;99856.72;;;9.77;100.00
77147;BME280;66121;52.584;9.694;2023-12-29T13:07:19;99841.31;;;9.90;100.00
77147;BME280;66121;52.584;9.694;2023-12-29T13:09:52;99822.34;;;10.06;100.00
77147;BME280;66121;52.584;9.694;2023-12-29T13:12:18;99781.78;;;10.13;100.00